createdAt,value
2017-07-31T00:00:16.313Z,17.30
2017-07-31T00:02:43.941Z,17.40
2017-07-31T00:05:11.713Z,17.40
2017-07-31T00:07:39.404Z,17.40
2017-07-31T00:10:07.175Z,17.40
2017-07-31T00:12:35.326Z,17.40
2017-07-31T00:15:03.021Z,17.40
2017-07-31T00:17:30.651Z,17.40
2017-07-31T00:19:58.297Z,17.40
2017-07-31T00:22:25.960Z,17.30
2017-07-31T00:24:53.829Z,17.30
2017-07-31T00:27:21.441Z,17.30
2017-07-31T00:29:49.109Z,17.30
2017-07-31T00:32:16.716Z,17.30
2017-07-31T00:34:44.370Z,17.30
2017-07-31T00:37:12.436Z,17.20
2017-07-31T00:39:40.425Z,17.20
2017-07-31T00:42:08.041Z,17.10
2017-07-31T00:44:35.712Z,17.00
2017-07-31T00:47:03.337Z,17.00
2017-07-31T00:49:31.094Z,16.90
2017-07-31T00:51:58.768Z,16.90
2017-07-31T00:54:26.386Z,16.80
2017-07-31T00:56:54.004Z,16.80
2017-07-31T00:59:22.257Z,16.70
2017-07-31T01:01:49.893Z,16.60
2017-07-31T01:04:17.513Z,16.60
2017-07-31T01:06:45.172Z,16.50
2017-07-31T01:09:12.789Z,16.50
2017-07-31T01:11:40.405Z,16.50
2017-07-31T01:14:08.085Z,16.50
2017-07-31T01:16:35.732Z,16.50
2017-07-31T01:19:03.368Z,16.50
2017-07-31T01:21:31.039Z,16.50
2017-07-31T01:23:58.850Z,16.50
2017-07-31T01:26:27.041Z,16.50
2017-07-31T01:28:54.658Z,16.50
2017-07-31T01:31:23.057Z,16.50
2017-07-31T01:33:50.672Z,16.40
2017-07-31T01:36:18.419Z,16.50
2017-07-31T01:38:46.250Z,16.50
2017-07-31T01:41:13.885Z,16.50
2017-07-31T01:43:41.722Z,16.50
2017-07-31T01:46:09.362Z,16.50
2017-07-31T01:48:37.059Z,16.50
2017-07-31T01:51:04.764Z,16.60
2017-07-31T01:53:32.430Z,16.60
2017-07-31T01:56:00.108Z,16.60
2017-07-31T01:58:27.908Z,16.60
2017-07-31T02:00:55.538Z,16.60
2017-07-31T02:03:23.212Z,16.60
2017-07-31T02:05:51.158Z,16.60
2017-07-31T02:08:18.781Z,16.60
2017-07-31T02:10:47.173Z,16.50
2017-07-31T02:13:15.609Z,16.60
2017-07-31T02:15:43.224Z,16.50
2017-07-31T02:18:10.855Z,16.60
2017-07-31T02:20:38.518Z,16.50
2017-07-31T02:23:06.129Z,16.50
2017-07-31T02:25:33.748Z,16.50
2017-07-31T02:28:01.416Z,16.50
2017-07-31T02:30:29.053Z,16.50
2017-07-31T02:32:56.669Z,16.50
2017-07-31T02:35:24.325Z,16.50
2017-07-31T02:37:51.940Z,16.50
2017-07-31T02:40:19.553Z,16.40
2017-07-31T02:42:47.481Z,16.40
2017-07-31T02:45:15.299Z,16.40
2017-07-31T02:47:43.090Z,16.40
2017-07-31T02:50:10.755Z,16.40
2017-07-31T02:52:38.380Z,16.30
2017-07-31T02:55:05.988Z,16.30
2017-07-31T02:57:33.654Z,16.30
2017-07-31T03:00:01.264Z,16.30
2017-07-31T03:02:28.900Z,16.20
2017-07-31T03:04:56.745Z,16.20
2017-07-31T03:07:24.368Z,16.20
2017-07-31T03:09:52.058Z,16.20
2017-07-31T03:12:20.148Z,16.20
2017-07-31T03:14:47.771Z,16.20
2017-07-31T03:17:15.433Z,16.10
2017-07-31T03:19:43.406Z,16.10
2017-07-31T03:22:11.040Z,16.10
2017-07-31T03:24:38.658Z,16.10
2017-07-31T03:27:06.381Z,16.10
2017-07-31T03:29:34.008Z,16.10
2017-07-31T03:32:01.673Z,16.10
2017-07-31T03:34:29.336Z,16.10
2017-07-31T03:36:56.948Z,16.10
2017-07-31T03:39:24.633Z,16.20
2017-07-31T03:41:52.292Z,16.20
2017-07-31T03:44:19.943Z,16.10
2017-07-31T03:46:47.564Z,16.20
2017-07-31T03:49:16.307Z,16.20
2017-07-31T03:51:43.925Z,16.20
2017-07-31T03:54:12.269Z,16.20
2017-07-31T03:56:39.936Z,16.20
2017-07-31T03:59:07.589Z,16.20
2017-07-31T04:01:35.209Z,16.20
2017-07-31T04:04:02.868Z,16.30
2017-07-31T04:06:30.484Z,16.30
2017-07-31T04:08:58.100Z,16.30
2017-07-31T04:11:25.790Z,16.30
2017-07-31T04:13:53.549Z,16.40
2017-07-31T04:16:21.778Z,16.30
2017-07-31T04:18:49.757Z,16.30
2017-07-31T04:21:17.385Z,16.30
2017-07-31T04:23:45.007Z,16.20
2017-07-31T04:26:13.065Z,16.20
2017-07-31T04:28:40.711Z,16.30
2017-07-31T04:31:08.318Z,16.30
2017-07-31T04:33:36.009Z,16.40
2017-07-31T04:36:03.627Z,16.30
2017-07-31T04:38:31.248Z,16.40
2017-07-31T04:41:00.003Z,16.40
2017-07-31T04:43:28.333Z,16.40
2017-07-31T04:45:55.965Z,16.40
2017-07-31T04:48:24.256Z,16.50
2017-07-31T04:50:51.941Z,16.50
2017-07-31T04:53:19.876Z,16.60
2017-07-31T04:55:47.818Z,16.70
2017-07-31T04:58:15.463Z,16.70
2017-07-31T05:00:43.255Z,16.80
2017-07-31T05:03:11.732Z,16.80
2017-07-31T05:05:39.349Z,16.80
2017-07-31T05:08:07.618Z,16.80
2017-07-31T05:10:35.288Z,16.80
2017-07-31T05:13:02.918Z,16.80
2017-07-31T05:15:30.556Z,16.80
2017-07-31T05:17:58.246Z,16.80
2017-07-31T05:20:25.999Z,16.90
2017-07-31T05:22:53.631Z,17.00
2017-07-31T05:25:21.300Z,17.10
2017-07-31T05:27:49.366Z,17.20
2017-07-31T05:30:17.004Z,17.40
2017-07-31T05:32:44.673Z,17.50
2017-07-31T05:35:12.300Z,17.70
2017-07-31T05:37:39.924Z,17.80
2017-07-31T05:40:07.602Z,18.00
2017-07-31T05:42:35.228Z,18.10
2017-07-31T05:45:02.851Z,18.30
2017-07-31T05:47:30.593Z,18.50
2017-07-31T05:49:58.772Z,18.80
2017-07-31T05:52:26.389Z,19.10
2017-07-31T05:54:54.331Z,19.30
2017-07-31T05:57:21.952Z,19.50
2017-07-31T05:59:49.564Z,19.70
2017-07-31T06:02:17.275Z,19.90
2017-07-31T06:04:44.944Z,20.00
2017-07-31T06:07:12.579Z,20.10
2017-07-31T06:09:40.269Z,20.10
2017-07-31T06:12:07.911Z,20.10
2017-07-31T06:14:35.548Z,20.10
2017-07-31T06:17:03.213Z,20.10
2017-07-31T06:19:30.922Z,20.20
2017-07-31T06:21:58.540Z,20.40
2017-07-31T06:24:26.428Z,20.50
2017-07-31T06:26:54.438Z,20.70
2017-07-31T06:29:22.520Z,20.80
2017-07-31T06:31:50.365Z,20.90
2017-07-31T06:34:18.137Z,20.90
2017-07-31T06:36:45.757Z,20.80
2017-07-31T06:39:13.424Z,20.90
2017-07-31T06:41:41.038Z,20.80
2017-07-31T06:44:08.657Z,20.80
2017-07-31T06:46:36.320Z,21.00
2017-07-31T06:49:03.937Z,21.10
2017-07-31T06:51:31.604Z,21.10
2017-07-31T06:53:59.287Z,21.10
2017-07-31T06:56:27.678Z,21.30
2017-07-31T06:58:55.443Z,21.30
2017-07-31T07:01:23.114Z,21.50
2017-07-31T07:03:50.719Z,21.80
2017-07-31T07:06:18.329Z,22.30
2017-07-31T07:08:46.613Z,22.50
2017-07-31T07:11:14.230Z,22.50
2017-07-31T07:13:42.269Z,22.50
2017-07-31T07:16:10.053Z,22.40
2017-07-31T07:18:37.664Z,22.50
2017-07-31T07:21:05.281Z,22.40
2017-07-31T07:23:32.966Z,22.50
2017-07-31T07:26:00.594Z,22.70
2017-07-31T07:28:28.644Z,22.80
2017-07-31T07:30:56.323Z,22.60
2017-07-31T07:33:23.941Z,22.60
2017-07-31T07:35:51.556Z,22.80
2017-07-31T07:38:19.637Z,23.00
2017-07-31T07:40:47.800Z,23.20
2017-07-31T07:43:15.472Z,23.40
2017-07-31T07:45:43.161Z,23.60
2017-07-31T07:48:10.805Z,23.80
2017-07-31T07:50:38.412Z,23.90
2017-07-31T07:53:06.088Z,24.10
2017-07-31T07:55:33.700Z,24.20
2017-07-31T07:58:01.543Z,24.40
2017-07-31T08:00:29.208Z,24.30
2017-07-31T08:02:56.814Z,24.30
2017-07-31T08:05:24.445Z,24.20
2017-07-31T08:07:52.412Z,24.20
2017-07-31T08:10:20.025Z,24.30
2017-07-31T08:12:47.642Z,24.70
2017-07-31T08:15:15.594Z,24.90
2017-07-31T08:17:43.361Z,25.20
2017-07-31T08:20:11.020Z,25.30
2017-07-31T08:22:38.704Z,25.40
2017-07-31T08:25:06.348Z,25.40
2017-07-31T08:27:33.960Z,25.40
2017-07-31T08:30:01.649Z,25.60
2017-07-31T08:32:29.265Z,25.90
2017-07-31T08:34:56.893Z,26.10
2017-07-31T08:37:24.568Z,26.30
2017-07-31T08:39:52.188Z,26.50
2017-07-31T08:42:19.803Z,26.70
2017-07-31T08:44:47.472Z,26.60
2017-07-31T08:47:15.112Z,26.70
2017-07-31T08:49:42.775Z,26.70
2017-07-31T08:52:10.458Z,26.90
2017-07-31T08:54:38.080Z,27.00
2017-07-31T08:57:05.695Z,26.90
2017-07-31T08:59:33.366Z,27.00
2017-07-31T09:02:00.997Z,27.10
2017-07-31T09:04:28.620Z,27.20
2017-07-31T09:06:56.294Z,27.00
2017-07-31T09:09:24.192Z,27.00
2017-07-31T09:11:51.961Z,26.90
2017-07-31T09:14:19.771Z,27.10
2017-07-31T09:16:48.243Z,27.40
2017-07-31T09:19:15.968Z,27.40
2017-07-31T09:21:43.702Z,27.80
2017-07-31T09:24:11.429Z,27.90
2017-07-31T09:26:39.185Z,28.30
2017-07-31T09:29:07.363Z,28.50
2017-07-31T09:31:35.096Z,28.80
2017-07-31T09:34:02.745Z,29.00
2017-07-31T09:36:30.426Z,29.00
2017-07-31T09:38:58.045Z,29.10
2017-07-31T09:41:25.851Z,29.20
2017-07-31T09:43:53.536Z,29.00
2017-07-31T09:46:21.170Z,28.70
2017-07-31T09:48:48.841Z,28.80
2017-07-31T09:51:16.920Z,28.90
2017-07-31T09:53:45.552Z,29.00
2017-07-31T09:56:13.759Z,28.80
2017-07-31T09:58:42.333Z,28.80
2017-07-31T10:01:10.031Z,28.80
2017-07-31T10:03:37.670Z,28.80
2017-07-31T10:06:05.362Z,28.40
2017-07-31T10:08:33.017Z,28.40
2017-07-31T10:11:00.634Z,28.30
2017-07-31T10:13:28.299Z,28.30
2017-07-31T10:15:55.912Z,28.40
2017-07-31T10:18:23.539Z,28.50
2017-07-31T10:20:51.323Z,28.50
2017-07-31T10:23:18.950Z,28.50
2017-07-31T10:25:46.576Z,28.60
2017-07-31T10:28:14.241Z,28.60
2017-07-31T10:30:42.396Z,28.60
2017-07-31T10:33:10.458Z,28.60
2017-07-31T10:35:39.762Z,28.50
2017-07-31T10:38:07.762Z,28.40
2017-07-31T10:40:35.607Z,28.40
2017-07-31T10:43:03.685Z,28.50
2017-07-31T10:45:32.218Z,28.50
2017-07-31T10:48:00.067Z,28.40
2017-07-31T10:50:29.123Z,28.40
2017-07-31T10:52:57.135Z,28.40
2017-07-31T10:55:24.931Z,28.50
2017-07-31T10:57:53.274Z,28.60
2017-07-31T11:00:20.898Z,28.70
2017-07-31T11:02:48.535Z,28.60
2017-07-31T11:05:16.301Z,28.60
2017-07-31T11:07:43.924Z,28.50
2017-07-31T11:10:11.768Z,28.40
2017-07-31T11:12:39.434Z,28.30
2017-07-31T11:15:07.082Z,28.30
2017-07-31T11:17:34.792Z,28.40
2017-07-31T11:20:03.253Z,28.60
2017-07-31T11:22:30.875Z,28.60
2017-07-31T11:24:58.489Z,28.80
2017-07-31T11:27:26.154Z,29.00
2017-07-31T11:29:54.595Z,29.00
2017-07-31T11:32:22.214Z,28.90
2017-07-31T11:34:49.907Z,28.60
2017-07-31T11:37:17.519Z,28.40
2017-07-31T11:39:45.144Z,28.50
2017-07-31T11:42:12.814Z,28.70
2017-07-31T11:44:40.880Z,28.90
2017-07-31T11:47:08.507Z,29.00
2017-07-31T11:49:36.181Z,29.00
2017-07-31T11:52:04.008Z,29.00
2017-07-31T11:54:32.265Z,29.00
2017-07-31T11:56:59.941Z,28.80
2017-07-31T11:59:27.552Z,28.90
2017-07-31T12:01:55.447Z,28.90
2017-07-31T12:04:23.118Z,29.00
2017-07-31T12:06:50.771Z,29.00
2017-07-31T12:09:18.384Z,29.10
2017-07-31T12:11:46.039Z,29.20
2017-07-31T12:14:13.657Z,29.30
2017-07-31T12:16:41.278Z,29.30
2017-07-31T12:19:08.984Z,29.30
2017-07-31T12:21:36.614Z,29.20
2017-07-31T12:24:04.237Z,29.20
2017-07-31T12:26:32.409Z,29.30
2017-07-31T12:29:00.480Z,29.40
2017-07-31T12:31:28.465Z,29.40
2017-07-31T12:33:56.166Z,29.30
2017-07-31T12:36:23.786Z,29.40
2017-07-31T12:38:51.667Z,29.30
2017-07-31T12:41:20.121Z,29.30
2017-07-31T12:43:47.751Z,29.30
2017-07-31T12:46:15.374Z,29.30
2017-07-31T12:48:43.056Z,29.40
2017-07-31T12:51:10.689Z,29.30
2017-07-31T12:53:38.310Z,29.30
2017-07-31T12:56:06.229Z,29.30
2017-07-31T12:58:34.369Z,29.40
2017-07-31T13:01:02.020Z,29.50
2017-07-31T13:03:30.524Z,29.60
2017-07-31T13:05:58.142Z,29.60
2017-07-31T13:08:25.776Z,29.60
2017-07-31T13:10:54.315Z,29.60
2017-07-31T13:13:22.157Z,29.60
2017-07-31T13:15:49.783Z,29.60
2017-07-31T13:18:17.448Z,29.40
2017-07-31T13:20:45.884Z,29.60
2017-07-31T13:23:13.893Z,29.60
2017-07-31T13:25:41.704Z,29.70
2017-07-31T13:28:09.328Z,29.80
2017-07-31T13:30:36.950Z,29.80
2017-07-31T13:33:05.526Z,29.80
2017-07-31T13:35:33.417Z,29.80
2017-07-31T13:38:01.040Z,29.90
2017-07-31T13:40:28.863Z,29.90
2017-07-31T13:42:56.494Z,29.90
2017-07-31T13:45:24.249Z,29.90
2017-07-31T13:47:52.209Z,29.90
2017-07-31T13:50:21.930Z,29.90
2017-07-31T13:52:49.599Z,29.90
2017-07-31T13:55:17.340Z,29.90
2017-07-31T13:57:45.041Z,29.90
2017-07-31T14:00:12.656Z,29.80
2017-07-31T14:02:40.663Z,29.70
2017-07-31T14:05:08.326Z,29.70
2017-07-31T14:07:36.081Z,29.70
2017-07-31T14:10:03.752Z,29.90
2017-07-31T14:12:31.377Z,29.90
2017-07-31T14:14:58.998Z,29.90
2017-07-31T14:17:26.667Z,30.00
2017-07-31T14:19:54.293Z,29.90
2017-07-31T14:22:22.197Z,29.90
2017-07-31T14:24:49.874Z,29.80
2017-07-31T14:27:18.834Z,29.70
2017-07-31T14:29:46.977Z,29.70
2017-07-31T14:32:15.500Z,29.70
2017-07-31T14:34:43.197Z,29.90
2017-07-31T14:37:10.821Z,29.90
2017-07-31T14:39:38.591Z,30.00
2017-07-31T14:42:06.216Z,30.00
2017-07-31T14:44:33.825Z,29.90
2017-07-31T14:47:01.498Z,29.90
2017-07-31T14:49:29.351Z,29.80
2017-07-31T14:51:56.970Z,29.80
2017-07-31T14:54:24.776Z,29.70
2017-07-31T14:56:52.388Z,29.70
2017-07-31T14:59:20.041Z,29.60
2017-07-31T15:01:47.738Z,29.50
2017-07-31T15:04:15.368Z,29.40
2017-07-31T15:06:44.058Z,29.20
2017-07-31T15:09:11.708Z,29.20
2017-07-31T15:11:39.325Z,29.20
2017-07-31T15:14:07.305Z,29.10
2017-07-31T15:16:35.994Z,29.10
2017-07-31T15:19:03.765Z,29.10
2017-07-31T15:21:31.614Z,29.20
2017-07-31T15:23:59.379Z,29.20
2017-07-31T15:26:27.054Z,29.30
2017-07-31T15:28:54.679Z,29.40
2017-07-31T15:31:22.300Z,29.30
2017-07-31T15:33:49.983Z,29.20
2017-07-31T15:36:17.592Z,29.00
2017-07-31T15:38:45.196Z,28.90
2017-07-31T15:41:12.851Z,28.90
2017-07-31T15:43:40.507Z,28.80
2017-07-31T15:46:08.325Z,28.90
2017-07-31T15:48:36.021Z,28.80
2017-07-31T15:51:03.685Z,28.80
2017-07-31T15:53:31.297Z,28.70
2017-07-31T15:55:59.101Z,28.70
2017-07-31T15:58:26.866Z,28.80
2017-07-31T16:00:54.492Z,28.90
2017-07-31T16:03:22.152Z,28.80
2017-07-31T16:05:49.772Z,28.70
2017-07-31T16:08:17.836Z,28.70
2017-07-31T16:10:45.667Z,28.70
2017-07-31T16:13:13.288Z,28.70
2017-07-31T16:15:40.907Z,28.70
2017-07-31T16:18:08.637Z,28.60
2017-07-31T16:20:38.017Z,28.50
2017-07-31T16:23:05.993Z,28.50
2017-07-31T16:25:34.117Z,28.50
2017-07-31T16:28:01.895Z,28.40
2017-07-31T16:30:29.532Z,28.40
2017-07-31T16:32:57.202Z,28.30
2017-07-31T16:35:24.822Z,28.30
2017-07-31T16:37:58.356Z,28.30
2017-07-31T16:40:37.926Z,28.20
2017-07-31T16:43:17.393Z,28.20
2017-07-31T16:45:47.686Z,28.20
2017-07-31T16:48:31.969Z,28.10
2017-07-31T16:51:00.033Z,28.00
2017-07-31T16:53:27.826Z,28.00
2017-07-31T16:55:55.561Z,28.00
2017-07-31T16:58:23.532Z,27.90
2017-07-31T17:00:51.210Z,27.90
2017-07-31T17:03:19.020Z,27.90
2017-07-31T17:05:46.833Z,27.90
2017-07-31T17:08:14.471Z,27.90
2017-07-31T17:10:42.150Z,27.80
2017-07-31T17:13:09.772Z,27.80
2017-07-31T17:15:37.396Z,27.70
2017-07-31T17:18:05.349Z,27.60
2017-07-31T17:20:33.658Z,27.50
2017-07-31T17:23:01.273Z,27.50
2017-07-31T17:25:29.039Z,27.50
2017-07-31T17:27:56.701Z,27.40
2017-07-31T17:30:24.324Z,27.30
2017-07-31T17:32:52.008Z,27.30
2017-07-31T17:35:19.627Z,27.20
2017-07-31T17:37:47.253Z,27.10
2017-07-31T17:40:14.928Z,27.10
2017-07-31T17:42:42.556Z,27.10
2017-07-31T17:45:10.183Z,27.10
2017-07-31T17:47:38.632Z,27.10
2017-07-31T17:50:06.263Z,27.10
2017-07-31T17:52:34.154Z,27.10
2017-07-31T17:55:01.832Z,27.20
2017-07-31T17:57:30.607Z,27.20
2017-07-31T17:59:59.211Z,27.10
2017-07-31T18:02:27.208Z,27.00
2017-07-31T18:04:55.341Z,26.90
2017-07-31T18:07:24.130Z,26.70
2017-07-31T18:09:51.892Z,26.70
2017-07-31T18:12:19.547Z,26.60
2017-07-31T18:14:47.230Z,26.50
2017-07-31T18:17:14.916Z,26.40
2017-07-31T18:19:42.645Z,26.40
2017-07-31T18:22:10.323Z,26.30
2017-07-31T18:24:38.026Z,26.30
2017-07-31T18:27:05.773Z,26.20
2017-07-31T18:29:33.453Z,26.00
2017-07-31T18:32:01.382Z,26.00
2017-07-31T18:34:29.700Z,25.90
2017-07-31T18:36:58.145Z,25.80
2017-07-31T18:39:25.950Z,25.70
2017-07-31T18:41:54.604Z,25.50
2017-07-31T18:44:22.261Z,25.40
2017-07-31T18:46:50.125Z,25.30
2017-07-31T18:49:17.840Z,25.20
2017-07-31T18:51:46.034Z,25.10
2017-07-31T18:54:14.076Z,24.90
2017-07-31T18:56:41.769Z,24.90
2017-07-31T18:59:09.442Z,24.80
2017-07-31T19:01:37.548Z,24.70
2017-07-31T19:04:05.288Z,24.70
2017-07-31T19:06:33.304Z,24.70
2017-07-31T19:09:01.192Z,24.70
2017-07-31T19:11:29.155Z,24.60
2017-07-31T19:13:57.393Z,24.60
2017-07-31T19:16:25.167Z,24.50
2017-07-31T19:18:53.302Z,24.50
2017-07-31T19:21:21.020Z,24.50
2017-07-31T19:23:50.011Z,24.40
2017-07-31T19:26:18.329Z,24.40
2017-07-31T19:28:46.357Z,24.30
2017-07-31T19:31:14.448Z,24.30
2017-07-31T19:33:42.728Z,24.20
2017-07-31T19:36:10.517Z,24.10
2017-07-31T19:38:39.283Z,24.00
2017-07-31T19:41:07.265Z,23.90
2017-07-31T19:43:34.881Z,23.80
2017-07-31T19:46:02.732Z,23.60
2017-07-31T19:48:30.497Z,23.60
2017-07-31T19:50:58.263Z,23.50
2017-07-31T19:53:26.334Z,23.40
2017-07-31T19:55:54.013Z,23.30
2017-07-31T19:58:21.773Z,23.10
2017-07-31T20:00:49.538Z,23.10
2017-07-31T20:03:17.389Z,22.90
2017-07-31T20:05:45.004Z,22.90
2017-07-31T20:08:13.353Z,22.80
2017-07-31T20:10:40.973Z,22.70
2017-07-31T20:13:08.596Z,22.60
2017-07-31T20:15:36.576Z,22.50
2017-07-31T20:18:04.518Z,22.50
2017-07-31T20:20:32.152Z,22.60
2017-07-31T20:23:00.112Z,22.50
2017-07-31T20:25:27.813Z,22.50
2017-07-31T20:27:55.433Z,22.40
2017-07-31T20:30:23.132Z,22.30
2017-07-31T20:32:50.781Z,22.30
2017-07-31T20:35:18.408Z,22.20
2017-07-31T20:37:46.137Z,22.20
2017-07-31T20:40:13.762Z,22.20
2017-07-31T20:42:41.392Z,22.20
2017-07-31T20:45:09.061Z,22.20
2017-07-31T20:47:36.685Z,22.30
2017-07-31T20:50:04.305Z,22.20
2017-07-31T20:52:32.234Z,22.20
2017-07-31T20:55:00.380Z,22.10
2017-07-31T20:57:28.012Z,22.10
2017-07-31T20:59:56.832Z,21.90
2017-07-31T21:02:24.838Z,21.80
2017-07-31T21:04:52.651Z,21.80
2017-07-31T21:07:21.026Z,21.70
2017-07-31T21:09:49.817Z,21.70
2017-07-31T21:12:18.389Z,21.60
2017-07-31T21:14:46.832Z,21.60
2017-07-31T21:17:16.291Z,21.50
2017-07-31T21:19:43.968Z,21.50
2017-07-31T21:22:11.934Z,21.40
2017-07-31T21:24:39.741Z,21.40
2017-07-31T21:27:07.685Z,21.40
2017-07-31T21:29:36.560Z,21.40
2017-07-31T21:32:04.352Z,21.40
2017-07-31T21:34:32.031Z,21.50
2017-07-31T21:37:01.925Z,21.50
2017-07-31T21:39:31.693Z,21.50
2017-07-31T21:41:59.992Z,21.50
2017-07-31T21:44:27.641Z,21.70
2017-07-31T21:46:56.775Z,21.80
2017-07-31T21:49:25.369Z,21.80
2017-07-31T21:51:53.759Z,21.80
2017-07-31T21:54:22.150Z,21.80
2017-07-31T21:56:49.928Z,21.80
2017-07-31T21:59:17.542Z,21.70
2017-07-31T22:01:45.174Z,21.70
2017-07-31T22:04:13.120Z,21.60
2017-07-31T22:06:40.752Z,21.40
2017-07-31T22:09:08.385Z,21.40
2017-07-31T22:11:36.155Z,21.30
2017-07-31T22:14:03.778Z,21.20
2017-07-31T22:16:37.029Z,21.10
2017-07-31T22:19:04.761Z,21.00
2017-07-31T22:21:38.340Z,21.00
2017-07-31T22:24:07.346Z,21.10
2017-07-31T22:26:35.169Z,21.10
2017-07-31T22:29:03.037Z,21.00
2017-07-31T22:31:30.654Z,21.00
2017-07-31T22:33:58.331Z,20.90
2017-07-31T22:36:26.184Z,20.80
2017-07-31T22:38:53.803Z,20.80
2017-07-31T22:41:21.417Z,20.70
2017-07-31T22:43:49.068Z,20.70
2017-07-31T22:46:16.733Z,20.60
2017-07-31T22:48:44.358Z,20.70
2017-07-31T22:51:12.024Z,20.70
2017-07-31T22:53:39.648Z,20.80
2017-07-31T22:56:07.278Z,20.80
2017-07-31T22:58:34.946Z,20.90
2017-07-31T23:01:02.568Z,21.00
2017-07-31T23:03:30.188Z,21.00
2017-07-31T23:05:58.107Z,21.00
2017-07-31T23:08:25.751Z,21.00
2017-07-31T23:10:53.377Z,21.00
2017-07-31T23:13:21.049Z,20.90
2017-07-31T23:15:48.668Z,20.80
2017-07-31T23:18:16.292Z,20.70
2017-07-31T23:20:44.744Z,20.50
2017-07-31T23:23:12.361Z,20.50
2017-07-31T23:25:39.981Z,20.50
2017-07-31T23:28:07.664Z,20.30
2017-07-31T23:30:36.048Z,20.10
2017-07-31T23:33:04.428Z,20.10
2017-07-31T23:35:33.145Z,19.90
2017-07-31T23:38:00.755Z,19.90
2017-07-31T23:40:28.392Z,19.90
2017-07-31T23:42:56.060Z,19.80
2017-07-31T23:45:23.681Z,19.80
2017-07-31T23:47:51.599Z,19.70
2017-07-31T23:50:19.369Z,19.70
2017-07-31T23:52:47.013Z,19.70
2017-07-31T23:55:15.232Z,19.60
2017-07-31T23:57:43.941Z,19.60
